createdAt,value
2018-04-07T00:00:12.122Z,2.50
2018-04-07T00:02:40.498Z,2.50
2018-04-07T00:05:08.814Z,2.30
2018-04-07T00:07:37.142Z,2.30
2018-04-07T00:10:06.520Z,2.10
2018-04-07T00:12:34.852Z,2.00
2018-04-07T00:15:03.160Z,1.90
2018-04-07T00:17:32.607Z,1.70
2018-04-07T00:20:00.912Z,1.60
2018-04-07T00:22:29.261Z,1.60
2018-04-07T00:24:59.179Z,1.50
2018-04-07T00:27:27.530Z,1.40
2018-04-07T00:29:55.910Z,1.50
2018-04-07T00:32:24.504Z,1.50
2018-04-07T00:34:52.804Z,1.40
2018-04-07T00:37:21.113Z,1.30
2018-04-07T00:39:50.817Z,1.40
2018-04-07T00:42:19.212Z,1.40
2018-04-07T00:44:47.507Z,1.40
2018-04-07T00:47:15.820Z,1.50
2018-04-07T00:49:45.109Z,1.40
2018-04-07T00:52:17.490Z,1.30
2018-04-07T00:54:46.751Z,1.30
2018-04-07T00:57:17.437Z,1.00
2018-04-07T00:59:45.759Z,1.00
2018-04-07T01:02:18.217Z,0.90
2018-04-07T01:04:46.520Z,0.90
2018-04-07T01:07:14.822Z,0.90
2018-04-07T01:09:44.085Z,0.90
2018-04-07T01:12:13.156Z,0.80
2018-04-07T01:14:41.472Z,0.70
2018-04-07T01:17:10.487Z,0.70
2018-04-07T01:19:39.584Z,0.70
2018-04-07T01:22:08.643Z,0.60
2018-04-07T01:24:38.047Z,0.60
2018-04-07T01:27:06.337Z,0.60
2018-04-07T01:29:34.646Z,0.60
2018-04-07T01:32:04.461Z,0.40
2018-04-07T01:34:33.556Z,0.40
2018-04-07T01:37:01.879Z,0.40
2018-04-07T01:39:30.591Z,0.30
2018-04-07T01:41:58.946Z,0.50
2018-04-07T01:44:27.262Z,0.50
2018-04-07T01:46:56.411Z,0.30
2018-04-07T01:49:24.778Z,0.20
2018-04-07T01:51:53.076Z,0.10
2018-04-07T01:54:22.350Z,0.10
2018-04-07T01:56:52.989Z,0.10
2018-04-07T01:59:22.850Z,0.10
2018-04-07T02:01:52.370Z,0.10
2018-04-07T02:04:20.676Z,0.10
2018-04-07T02:06:48.957Z,0.00
2018-04-07T02:09:18.089Z,0.00
2018-04-07T02:11:47.165Z,0.00
2018-04-07T02:14:15.970Z,0.00
2018-04-07T02:16:46.568Z,-0.10
2018-04-07T02:19:14.921Z,-0.10
2018-04-07T02:21:43.259Z,-0.10
2018-04-07T02:24:12.762Z,-0.10
2018-04-07T02:26:41.084Z,0.00
2018-04-07T02:29:10.448Z,0.10
2018-04-07T02:31:39.688Z,0.10
2018-04-07T02:34:08.769Z,0.00
2018-04-07T02:36:37.060Z,0.00
2018-04-07T02:39:06.612Z,0.10
2018-04-07T02:41:34.895Z,0.00
2018-04-07T02:44:03.181Z,-0.20
2018-04-07T02:46:31.925Z,-0.20
2018-04-07T02:49:00.232Z,-0.20
2018-04-07T02:51:28.561Z,-0.10
2018-04-07T02:53:58.136Z,-0.10
2018-04-07T02:56:26.442Z,-0.20
2018-04-07T02:58:54.923Z,-0.20
2018-04-07T03:01:26.900Z,-0.20
2018-04-07T03:03:56.240Z,-0.20
2018-04-07T03:06:25.322Z,-0.20
2018-04-07T03:08:53.614Z,-0.20
2018-04-07T03:11:22.825Z,-0.30
2018-04-07T03:13:51.898Z,-0.40
2018-04-07T03:16:20.254Z,-0.40
2018-04-07T03:18:50.261Z,-0.40
2018-04-07T03:21:18.566Z,-0.40
2018-04-07T03:23:46.873Z,-0.30
2018-04-07T03:26:15.994Z,-0.20
2018-04-07T03:28:45.083Z,-0.40
2018-04-07T03:31:13.380Z,-0.40
2018-04-07T03:33:44.209Z,-0.40
2018-04-07T03:36:12.502Z,-0.40
2018-04-07T03:38:40.799Z,-0.40
2018-04-07T03:41:10.376Z,-0.50
2018-04-07T03:43:38.674Z,-0.50
2018-04-07T03:46:07.735Z,-0.80
2018-04-07T03:48:37.891Z,-0.80
2018-04-07T03:51:06.942Z,-0.90
2018-04-07T03:53:35.245Z,-0.90
2018-04-07T03:56:05.236Z,-0.90
2018-04-07T03:58:33.685Z,-1.00
2018-04-07T04:01:02.747Z,-0.90
2018-04-07T04:03:32.987Z,-0.90
2018-04-07T04:06:01.278Z,-0.80
2018-04-07T04:08:29.606Z,-0.80
2018-04-07T04:10:58.763Z,-0.80
2018-04-07T04:13:27.826Z,-0.60
2018-04-07T04:15:56.968Z,-0.50
2018-04-07T04:18:26.906Z,-0.70
2018-04-07T04:20:55.212Z,-0.70
2018-04-07T04:23:23.515Z,-0.70
2018-04-07T04:25:52.547Z,-0.80
2018-04-07T04:28:21.635Z,-1.00
2018-04-07T04:30:49.926Z,-1.00
2018-04-07T04:33:19.839Z,-0.90
2018-04-07T04:35:48.135Z,-0.90
2018-04-07T04:38:16.432Z,-1.00
2018-04-07T04:40:45.183Z,-1.00
2018-04-07T04:43:13.468Z,-1.10
2018-04-07T04:45:53.092Z,-1.00
2018-04-07T04:48:26.390Z,-1.10
2018-04-07T04:50:55.614Z,-1.00
2018-04-07T04:53:24.704Z,-0.90
2018-04-07T04:55:53.000Z,-0.90
2018-04-07T04:58:23.156Z,-0.90
2018-04-07T05:00:51.441Z,-0.90
2018-04-07T05:03:19.777Z,-0.90
2018-04-07T05:05:50.238Z,-0.80
2018-04-07T05:08:18.575Z,-0.80
2018-04-07T05:10:46.915Z,-0.90
2018-04-07T05:13:16.067Z,-0.90
2018-04-07T05:15:44.373Z,-0.80
2018-04-07T05:18:13.465Z,-0.70
2018-04-07T05:20:43.209Z,-0.60
2018-04-07T05:23:11.515Z,-0.60
2018-04-07T05:25:39.814Z,-0.60
2018-04-07T05:28:08.173Z,-0.40
2018-04-07T05:30:37.314Z,-0.30
2018-04-07T05:33:05.622Z,-0.10
2018-04-07T05:35:34.676Z,0.10
2018-04-07T05:38:02.982Z,0.00
2018-04-07T05:40:32.907Z,0.30
2018-04-07T05:43:01.988Z,0.10
2018-04-07T05:45:30.282Z,0.10
2018-04-07T05:47:59.589Z,0.10
2018-04-07T05:50:28.644Z,0.40
2018-04-07T05:52:56.974Z,0.40
2018-04-07T05:55:26.869Z,0.60
2018-04-07T05:57:55.147Z,0.60
2018-04-07T06:00:23.481Z,0.70
2018-04-07T06:02:52.655Z,0.90
2018-04-07T06:05:21.729Z,1.20
2018-04-07T06:07:52.911Z,1.20
2018-04-07T06:10:21.234Z,1.40
2018-04-07T06:12:49.527Z,1.50
2018-04-07T06:15:18.445Z,1.50
2018-04-07T06:17:46.745Z,1.70
2018-04-07T06:20:15.789Z,1.90
2018-04-07T06:22:45.001Z,1.90
2018-04-07T06:25:13.303Z,2.10
2018-04-07T06:27:41.664Z,2.30
2018-04-07T06:30:11.454Z,2.50
2018-04-07T06:32:39.907Z,2.70
2018-04-07T06:35:08.967Z,2.90
2018-04-07T06:37:38.285Z,2.90
2018-04-07T06:40:06.582Z,3.10
2018-04-07T06:42:35.671Z,3.30
2018-04-07T06:45:03.981Z,3.30
2018-04-07T06:47:34.244Z,3.60
2018-04-07T06:50:02.739Z,3.60
2018-04-07T06:52:31.101Z,3.70
2018-04-07T06:55:00.376Z,3.80
2018-04-07T06:57:29.499Z,4.00
2018-04-07T06:59:57.845Z,4.00
2018-04-07T07:02:27.771Z,4.30
2018-04-07T07:04:56.844Z,4.40
2018-04-07T07:07:26.574Z,4.60
2018-04-07T07:09:57.735Z,4.70
2018-04-07T07:12:26.095Z,4.60
2018-04-07T07:14:54.395Z,4.80
2018-04-07T07:17:24.349Z,5.00
2018-04-07T07:19:54.604Z,5.20
2018-04-07T07:22:25.394Z,5.10
2018-04-07T07:24:54.786Z,5.40
2018-04-07T07:27:23.333Z,5.40
2018-04-07T07:29:52.678Z,5.60
2018-04-07T07:32:21.222Z,5.80
2018-04-07T07:34:50.375Z,6.20
2018-04-07T07:37:19.978Z,6.20
2018-04-07T07:39:49.274Z,6.50
2018-04-07T07:42:18.546Z,6.70
2018-04-07T07:44:47.286Z,6.60
2018-04-07T07:47:16.166Z,7.00
2018-04-07T07:49:46.363Z,8.30
2018-04-07T07:52:15.470Z,8.30
2018-04-07T07:54:45.589Z,9.70
2018-04-07T07:57:16.470Z,10.20
2018-04-07T07:59:44.786Z,10.10
2018-04-07T08:02:25.416Z,10.50
2018-04-07T08:04:54.831Z,11.40
2018-04-07T08:07:23.435Z,12.00
2018-04-07T08:09:52.542Z,12.20
2018-04-07T08:12:24.233Z,13.00
2018-04-07T08:14:54.754Z,13.50
2018-04-07T08:17:25.571Z,13.50
2018-04-07T08:19:57.369Z,14.10
2018-04-07T08:22:27.821Z,14.30
2018-04-07T08:24:56.577Z,14.20
2018-04-07T08:27:27.530Z,14.20
2018-04-07T08:29:59.110Z,14.50
2018-04-07T08:32:27.692Z,15.20
2018-04-07T08:34:56.418Z,15.60
2018-04-07T08:37:27.103Z,15.90
2018-04-07T08:39:55.894Z,16.00
2018-04-07T08:42:28.361Z,16.60
2018-04-07T08:45:00.272Z,17.30
2018-04-07T08:47:32.226Z,17.50
2018-04-07T08:50:08.430Z,17.40
2018-04-07T08:52:37.892Z,17.80
2018-04-07T08:55:07.352Z,17.90
2018-04-07T08:57:46.310Z,17.70
2018-04-07T09:00:23.880Z,17.20
2018-04-07T09:02:54.142Z,16.90
2018-04-07T09:05:27.519Z,16.90
2018-04-07T09:07:57.767Z,17.70
2018-04-07T09:10:27.887Z,18.10
2018-04-07T09:12:58.464Z,18.30
2018-04-07T09:15:30.460Z,18.50
2018-04-07T09:18:01.415Z,18.40
2018-04-07T09:20:30.730Z,18.40
2018-04-07T09:23:00.571Z,19.20
2018-04-07T09:25:29.662Z,19.00
2018-04-07T09:27:58.773Z,19.50
2018-04-07T09:30:29.394Z,19.80
2018-04-07T09:32:57.725Z,19.70
2018-04-07T09:35:26.018Z,20.30
2018-04-07T09:37:56.589Z,20.70
2018-04-07T09:40:27.557Z,22.00
2018-04-07T09:42:56.530Z,22.00
2018-04-07T09:45:25.629Z,22.10
2018-04-07T09:47:54.731Z,22.60
2018-04-07T09:50:25.357Z,22.10
2018-04-07T09:53:01.254Z,22.20
2018-04-07T09:55:30.627Z,22.20
2018-04-07T09:57:59.697Z,22.60
2018-04-07T10:00:28.029Z,22.50
2018-04-07T10:03:02.491Z,23.10
2018-04-07T10:05:30.810Z,24.50
2018-04-07T10:07:59.914Z,25.20
2018-04-07T10:10:28.904Z,25.20
2018-04-07T10:12:59.512Z,24.40
2018-04-07T10:15:27.833Z,24.40
2018-04-07T10:17:57.638Z,24.80
2018-04-07T10:20:26.818Z,25.10
2018-04-07T10:22:55.903Z,25.50
2018-04-07T10:25:28.889Z,25.50
2018-04-07T10:27:57.215Z,25.10
2018-04-07T10:30:26.292Z,23.50
2018-04-07T10:32:55.337Z,23.40
2018-04-07T10:35:23.663Z,24.10
2018-04-07T10:37:51.951Z,24.10
2018-04-07T10:40:20.663Z,24.10
2018-04-07T10:42:49.715Z,25.20
2018-04-07T10:45:18.220Z,25.20
2018-04-07T10:47:48.551Z,25.00
2018-04-07T10:50:16.836Z,25.00
2018-04-07T10:52:45.217Z,24.70
2018-04-07T10:55:14.218Z,25.20
2018-04-07T10:57:43.982Z,25.20
2018-04-07T11:00:13.749Z,25.30
2018-04-07T11:02:45.500Z,25.50
2018-04-07T11:05:13.842Z,25.70
2018-04-07T11:07:42.159Z,26.00
2018-04-07T11:10:11.267Z,25.80
2018-04-07T11:12:39.561Z,25.70
2018-04-07T11:15:09.578Z,25.00
2018-04-07T11:17:39.077Z,25.00
2018-04-07T11:20:07.387Z,25.00
2018-04-07T11:22:35.718Z,25.50
2018-04-07T11:25:04.859Z,26.60
2018-04-07T11:27:33.165Z,27.40
2018-04-07T11:30:02.218Z,29.30
2018-04-07T11:32:31.256Z,29.20
2018-04-07T11:35:00.602Z,28.50
2018-04-07T11:37:29.049Z,28.50
2018-04-07T11:40:01.083Z,29.00
2018-04-07T11:42:30.572Z,30.10
2018-04-07T11:45:00.013Z,28.60
2018-04-07T11:47:29.078Z,27.20
2018-04-07T11:49:57.444Z,27.20
2018-04-07T11:52:26.592Z,26.60
2018-04-07T11:54:54.875Z,27.40
2018-04-07T11:57:23.163Z,28.40
2018-04-07T11:59:52.912Z,29.30
2018-04-07T12:02:21.229Z,29.30
2018-04-07T12:04:49.514Z,29.20
2018-04-07T12:07:18.397Z,29.00
2018-04-07T12:09:46.713Z,28.70
2018-04-07T12:12:15.833Z,28.50
2018-04-07T12:14:45.497Z,28.70
2018-04-07T12:17:20.329Z,28.60
2018-04-07T12:19:49.537Z,28.30
2018-04-07T12:22:17.835Z,28.30
2018-04-07T12:24:46.135Z,28.60
2018-04-07T12:27:23.059Z,29.20
2018-04-07T12:29:51.367Z,29.10
2018-04-07T12:32:21.105Z,29.80
2018-04-07T12:34:49.467Z,29.40
2018-04-07T12:37:17.790Z,29.00
2018-04-07T12:39:47.166Z,29.00
2018-04-07T12:42:16.304Z,27.80
2018-04-07T12:44:45.654Z,27.60
2018-04-07T12:47:14.111Z,27.50
2018-04-07T12:49:51.401Z,28.80
2018-04-07T12:52:27.192Z,28.80
2018-04-07T12:54:56.703Z,29.80
2018-04-07T12:57:27.683Z,30.50
2018-04-07T12:59:56.704Z,30.50
2018-04-07T13:02:27.514Z,31.60
2018-04-07T13:04:55.882Z,31.60
2018-04-07T13:07:24.253Z,30.60
2018-04-07T13:09:54.159Z,30.40
2018-04-07T13:12:22.474Z,30.30
2018-04-07T13:14:50.831Z,30.30
2018-04-07T13:17:20.206Z,30.60
2018-04-07T13:19:49.744Z,30.30
2018-04-07T13:22:18.313Z,30.00
2018-04-07T13:24:47.987Z,29.20
2018-04-07T13:27:16.281Z,28.90
2018-04-07T13:29:44.575Z,28.90
2018-04-07T13:32:13.916Z,29.00
2018-04-07T13:34:42.269Z,28.70
2018-04-07T13:37:10.597Z,29.10
2018-04-07T13:39:39.885Z,28.90
2018-04-07T13:42:08.963Z,27.70
2018-04-07T13:44:37.323Z,27.60
2018-04-07T13:47:06.364Z,26.90
2018-04-07T13:49:36.671Z,27.30
2018-04-07T13:52:05.157Z,27.20
2018-04-07T13:54:34.609Z,27.20
2018-04-07T13:57:02.909Z,27.10
2018-04-07T13:59:31.282Z,26.90
2018-04-07T14:02:00.360Z,27.40
2018-04-07T14:04:30.258Z,27.30
2018-04-07T14:07:00.857Z,27.30
2018-04-07T14:09:30.974Z,27.00
2018-04-07T14:11:59.304Z,27.10
2018-04-07T14:14:28.366Z,27.40
2018-04-07T14:16:57.725Z,27.40
2018-04-07T14:19:26.084Z,27.10
2018-04-07T14:21:56.261Z,27.50
2018-04-07T14:24:25.741Z,27.60
2018-04-07T14:26:54.140Z,28.00
2018-04-07T14:29:23.002Z,27.60
2018-04-07T14:31:52.779Z,27.20
2018-04-07T14:34:21.445Z,27.50
2018-04-07T14:36:49.754Z,28.00
2018-04-07T14:39:19.008Z,28.30
2018-04-07T14:41:47.353Z,28.20
2018-04-07T14:44:15.907Z,28.20
2018-04-07T14:46:45.429Z,28.10
2018-04-07T14:49:13.757Z,28.00
2018-04-07T14:51:43.912Z,28.20
2018-04-07T14:54:13.569Z,28.20
2018-04-07T14:56:41.924Z,28.90
2018-04-07T14:59:10.259Z,29.20
2018-04-07T15:01:39.960Z,27.70
2018-04-07T15:04:08.250Z,27.70
2018-04-07T15:06:37.429Z,28.80
2018-04-07T15:09:06.632Z,28.80
2018-04-07T15:11:35.950Z,28.70
2018-04-07T15:14:04.259Z,28.40
2018-04-07T15:16:32.659Z,28.50
2018-04-07T15:19:01.526Z,28.60
2018-04-07T15:21:31.411Z,28.60
2018-04-07T15:24:00.596Z,29.30
2018-04-07T15:26:30.292Z,29.30
2018-04-07T15:28:58.584Z,28.80
2018-04-07T15:31:27.496Z,28.50
2018-04-07T15:33:56.325Z,27.70
2018-04-07T15:36:24.843Z,27.70
2018-04-07T15:38:53.529Z,27.10
2018-04-07T15:41:23.327Z,27.10
2018-04-07T15:43:52.685Z,27.10
2018-04-07T15:46:21.111Z,26.20
2018-04-07T15:48:51.165Z,26.20
2018-04-07T15:51:20.470Z,26.20
2018-04-07T15:53:49.676Z,27.30
2018-04-07T15:56:19.010Z,27.20
2018-04-07T15:58:47.366Z,26.80
2018-04-07T16:01:16.547Z,26.00
2018-04-07T16:03:46.736Z,25.10
2018-04-07T16:06:15.799Z,25.10
2018-04-07T16:08:44.973Z,24.80
2018-04-07T16:11:14.027Z,24.80
2018-04-07T16:13:42.336Z,24.60
2018-04-07T16:16:10.698Z,24.00
2018-04-07T16:18:39.610Z,23.80
2018-04-07T16:21:07.923Z,23.40
2018-04-07T16:23:37.933Z,23.20
2018-04-07T16:26:07.127Z,22.50
2018-04-07T16:28:36.186Z,20.90
2018-04-07T16:31:04.644Z,20.80
2018-04-07T16:33:33.566Z,20.50
2018-04-07T16:36:02.001Z,20.10
2018-04-07T16:38:30.762Z,19.70
2018-04-07T16:41:00.596Z,19.40
2018-04-07T16:43:29.293Z,19.30
2018-04-07T16:45:58.617Z,19.10
2018-04-07T16:48:27.827Z,18.90
2018-04-07T16:50:56.199Z,18.70
2018-04-07T16:53:24.865Z,18.60
2018-04-07T16:55:54.041Z,18.50
2018-04-07T16:58:23.130Z,18.20
2018-04-07T17:00:51.495Z,18.20
2018-04-07T17:03:21.123Z,18.10
2018-04-07T17:05:50.303Z,17.90
2018-04-07T17:08:18.736Z,17.90
2018-04-07T17:10:48.158Z,17.80
2018-04-07T17:13:20.094Z,17.70
2018-04-07T17:15:49.240Z,17.60
2018-04-07T17:18:17.806Z,17.60
2018-04-07T17:20:47.191Z,17.50
2018-04-07T17:23:16.016Z,17.20
2018-04-07T17:25:45.438Z,17.10
2018-04-07T17:28:14.765Z,16.90
2018-04-07T17:30:43.144Z,16.70
2018-04-07T17:33:12.435Z,16.30
2018-04-07T17:35:41.783Z,16.30
2018-04-07T17:38:10.248Z,16.10
2018-04-07T17:40:39.495Z,15.80
2018-04-07T17:43:08.711Z,15.80
2018-04-07T17:45:37.026Z,15.60
2018-04-07T17:48:05.533Z,15.40
2018-04-07T17:50:35.298Z,15.00
2018-04-07T17:53:03.658Z,15.00
2018-04-07T17:55:32.775Z,14.90
2018-04-07T17:58:02.299Z,14.70
2018-04-07T18:00:30.670Z,14.50
2018-04-07T18:02:59.595Z,14.30
2018-04-07T18:05:29.212Z,14.10
2018-04-07T18:07:57.716Z,14.00
2018-04-07T18:10:26.232Z,13.90
2018-04-07T18:12:56.039Z,13.60
2018-04-07T18:15:24.834Z,13.50
2018-04-07T18:17:53.345Z,13.40
2018-04-07T18:20:23.532Z,13.30
2018-04-07T18:22:52.057Z,13.20
2018-04-07T18:25:20.509Z,13.10
2018-04-07T18:27:50.749Z,13.10
2018-04-07T18:30:19.358Z,13.00
2018-04-07T18:32:47.699Z,13.00
2018-04-07T18:35:16.119Z,12.90
2018-04-07T18:37:46.239Z,12.90
2018-04-07T18:40:14.723Z,12.80
2018-04-07T18:42:43.450Z,12.70
2018-04-07T18:45:13.205Z,12.60
2018-04-07T18:47:42.874Z,12.50
2018-04-07T18:50:11.940Z,12.50
2018-04-07T18:52:42.046Z,12.30
2018-04-07T18:55:17.446Z,12.30
2018-04-07T18:57:48.236Z,12.20
2018-04-07T19:00:16.669Z,12.20
2018-04-07T19:02:45.012Z,12.10
2018-04-07T19:05:14.074Z,12.00
2018-04-07T19:07:42.743Z,11.90
2018-04-07T19:10:11.620Z,11.90
2018-04-07T19:12:40.928Z,11.80
2018-04-07T19:15:09.552Z,11.70
2018-04-07T19:17:39.161Z,11.50
2018-04-07T19:20:09.447Z,11.30
2018-04-07T19:22:37.870Z,11.30
2018-04-07T19:25:07.150Z,11.20
2018-04-07T19:27:37.295Z,11.10
2018-04-07T19:30:07.729Z,11.00
2018-04-07T19:32:36.266Z,10.80
2018-04-07T19:35:05.006Z,10.50
2018-04-07T19:37:34.415Z,10.20
2018-04-07T19:40:03.115Z,10.20
2018-04-07T19:42:33.598Z,9.90
2018-04-07T19:45:02.948Z,9.70
2018-04-07T19:47:32.277Z,9.50
2018-04-07T19:50:02.528Z,9.50
2018-04-07T19:52:37.923Z,9.20
2018-04-07T19:55:08.351Z,9.20
2018-04-07T19:57:38.024Z,9.20
2018-04-07T20:00:07.414Z,9.30
2018-04-07T20:02:36.653Z,9.30
2018-04-07T20:05:06.386Z,9.30
2018-04-07T20:07:42.771Z,9.10
2018-04-07T20:10:12.124Z,8.90
2018-04-07T20:12:43.092Z,8.70
2018-04-07T20:15:12.632Z,8.60
2018-04-07T20:17:42.110Z,8.60
2018-04-07T20:20:13.887Z,8.50
2018-04-07T20:22:45.372Z,8.50
2018-04-07T20:25:15.863Z,8.40
2018-04-07T20:27:46.421Z,8.30
2018-04-07T20:30:17.244Z,8.10
2018-04-07T20:32:47.796Z,8.00
2018-04-07T20:35:16.482Z,8.00
2018-04-07T20:37:47.052Z,7.90
2018-04-07T20:40:18.416Z,7.70
2018-04-07T20:43:03.815Z,7.60
2018-04-07T20:45:33.833Z,7.40
2018-04-07T20:48:06.211Z,7.30
2018-04-07T20:50:35.672Z,7.30
2018-04-07T20:53:21.406Z,7.30
2018-04-07T20:55:50.811Z,7.30
2018-04-07T20:58:21.792Z,7.30
2018-04-07T21:00:52.004Z,7.20
2018-04-07T21:06:19.123Z,7.10
2018-04-07T21:08:49.013Z,7.00
2018-04-07T21:11:23.159Z,6.90
2018-04-07T21:13:54.206Z,6.80
2018-04-07T21:16:29.852Z,6.90
2018-04-07T21:19:00.122Z,7.00
2018-04-07T21:21:32.246Z,6.90
2018-04-07T21:27:14.404Z,6.70
2018-04-07T21:29:45.290Z,6.70
2018-04-07T21:32:25.952Z,6.50
2018-04-07T21:34:56.795Z,6.40
2018-04-07T21:37:29.723Z,6.40
2018-04-07T21:40:02.747Z,6.30
2018-04-07T21:42:34.934Z,6.20
2018-04-07T21:45:07.730Z,6.20
2018-04-07T21:47:39.968Z,6.20
2018-04-07T21:50:09.948Z,6.30
2018-04-07T21:52:41.508Z,6.20
2018-04-07T21:55:12.916Z,6.10
2018-04-07T21:57:43.433Z,6.10
2018-04-07T22:00:14.468Z,6.00
2018-04-07T22:02:47.151Z,5.90
2018-04-07T22:05:17.716Z,5.90
2018-04-07T22:07:55.302Z,5.80
2018-04-07T22:10:25.140Z,5.80
2018-04-07T22:12:58.858Z,5.80
2018-04-07T22:15:36.136Z,5.70
2018-04-07T22:18:07.979Z,5.60
2018-04-07T22:20:38.200Z,5.60
2018-04-07T22:23:12.096Z,5.50
2018-04-07T22:25:42.508Z,5.50
2018-04-07T22:28:13.338Z,5.40
2018-04-07T22:30:51.457Z,5.40
2018-04-07T22:33:27.144Z,5.40
2018-04-07T22:35:57.050Z,5.50
2018-04-07T22:38:27.096Z,5.50
2018-04-07T22:40:56.399Z,5.30
2018-04-07T22:43:28.684Z,5.00
2018-04-07T22:45:57.566Z,5.00
2018-04-07T22:48:26.868Z,5.00
2018-04-07T22:51:07.486Z,5.00
2018-04-07T22:53:37.470Z,5.00
2018-04-07T22:56:06.557Z,4.90
2018-04-07T22:58:39.044Z,4.90
2018-04-07T23:01:08.994Z,4.80
2018-04-07T23:03:38.980Z,4.90
2018-04-07T23:06:08.473Z,4.90
2018-04-07T23:08:38.037Z,4.90
2018-04-07T23:11:08.642Z,4.80
2018-04-07T23:13:37.257Z,4.80
2018-04-07T23:16:07.210Z,4.80
2018-04-07T23:18:37.170Z,4.60
2018-04-07T23:21:05.740Z,4.60
2018-04-07T23:23:36.907Z,4.60
2018-04-07T23:26:09.264Z,4.60
2018-04-07T23:28:38.787Z,4.60
2018-04-07T23:31:13.418Z,4.70
2018-04-07T23:33:43.687Z,4.70
2018-04-07T23:36:13.236Z,4.60
2018-04-07T23:38:43.997Z,4.50
2018-04-07T23:41:13.116Z,4.40
2018-04-07T23:43:44.115Z,4.40
2018-04-07T23:46:14.931Z,4.40
2018-04-07T23:48:45.080Z,4.40
2018-04-07T23:51:15.048Z,4.50
2018-04-07T23:53:44.961Z,4.40
2018-04-07T23:56:14.690Z,4.40
2018-04-07T23:58:46.779Z,4.40
